sensor_id;sensor_type;location;lat;lon;timestamp;pressure;altitude;pressure_sealevel;temperature;humidity
25080;BME280;13071;48.868;9.996;2023-03-30T00:00:57;96245.66;;;10.54;75.66
25080;BME280;13071;48.868;9.996;2023-03-30T00:03:24;96243.16;;;10.61;75.32
25080;BME280;13071;48.868;9.996;2023-03-30T00:05:51;96235.97;;;10.65;74.61
25080;BME280;13071;48.868;9.996;2023-03-30T00:08:21;96245.31;;;10.67;74.79
25080;BME280;13071;48.868;9.996;2023-03-30T00:10:52;96233.59;;;10.63;75.13
25080;BME280;13071;48.868;9.996;2023-03-30T00:13:21;96235.84;;;10.61;75.90
25080;BME280;13071;48.868;9.996;2023-03-30T00:15:48;96232.38;;;10.49;77.16
25080;BME280;13071;48.868;9.996;2023-03-30T00:18:14;96241.28;;;10.49;77.49
25080;BME280;13071;48.868;9.996;2023-03-30T00:20:41;96240.47;;;10.49;77.40
25080;BME280;13071;48.868;9.996;2023-03-30T00:23:09;96245.31;;;10.43;78.19
25080;BME280;13071;48.868;9.996;2023-03-30T00:25:36;96243.63;;;10.38;78.14
25080;BME280;13071;48.868;9.996;2023-03-30T00:28:02;96250.41;;;10.45;77.26
25080;BME280;13071;48.868;9.996;2023-03-30T00:30:30;96273.84;;;10.53;76.82
25080;BME280;13071;48.868;9.996;2023-03-30T00:32:57;96262.34;;;10.68;76.66
25080;BME280;13071;48.868;9.996;2023-03-30T00:35:24;96274.88;;;10.60;78.62
25080;BME280;13071;48.868;9.996;2023-03-30T00:37:50;96295.50;;;10.77;78.87
25080;BME280;13071;48.868;9.996;2023-03-30T00:40:18;96296.94;;;11.11;79.00
25080;BME280;13071;48.868;9.996;2023-03-30T00:42:46;96307.22;;;10.93;80.41
25080;BME280;13071;48.868;9.996;2023-03-30T00:45:21;96310.25;;;11.16;82.05
25080;BME280;13071;48.868;9.996;2023-03-30T00:47:54;96302.59;;;11.06;83.74
25080;BME280;13071;48.868;9.996;2023-03-30T00:50:25;96298.09;;;11.10;85.26
25080;BME280;13071;48.868;9.996;2023-03-30T00:52:56;96289.97;;;10.98;86.10
25080;BME280;13071;48.868;9.996;2023-03-30T00:55:27;96290.09;;;10.89;87.54
25080;BME280;13071;48.868;9.996;2023-03-30T00:57:55;96291.09;;;10.97;87.75
25080;BME280;13071;48.868;9.996;2023-03-30T01:00:22;96282.63;;;10.86;88.74
25080;BME280;13071;48.868;9.996;2023-03-30T01:02:53;96283.53;;;10.78;89.87
25080;BME280;13071;48.868;9.996;2023-03-30T01:05:23;96285.25;;;10.70;91.77
25080;BME280;13071;48.868;9.996;2023-03-30T01:07:50;96276.22;;;10.66;92.88
25080;BME280;13071;48.868;9.996;2023-03-30T01:10:18;96281.97;;;10.65;92.38
25080;BME280;13071;48.868;9.996;2023-03-30T01:12:44;96271.81;;;10.62;93.68
25080;BME280;13071;48.868;9.996;2023-03-30T01:15:11;96275.09;;;10.55;94.94
25080;BME280;13071;48.868;9.996;2023-03-30T01:17:56;96265.94;;;10.48;97.32
25080;BME280;13071;48.868;9.996;2023-03-30T01:26:55;96188.63;;;10.47;100.00
25080;BME280;13071;48.868;9.996;2023-03-30T01:29:43;96185.59;;;10.24;100.00
25080;BME280;13071;48.868;9.996;2023-03-30T01:32:53;96185.22;;;10.62;100.00
25080;BME280;13071;48.868;9.996;2023-03-30T01:38:54;96187.28;;;10.41;100.00
25080;BME280;13071;48.868;9.996;2023-03-30T01:41:26;96183.44;;;10.29;100.00
25080;BME280;13071;48.868;9.996;2023-03-30T01:43:59;96170.47;;;10.47;100.00
25080;BME280;13071;48.868;9.996;2023-03-30T01:46:30;96171.50;;;10.30;100.00
25080;BME280;13071;48.868;9.996;2023-03-30T01:49:05;96167.78;;;10.35;100.00
25080;BME280;13071;48.868;9.996;2023-03-30T01:51:37;96167.53;;;10.52;100.00
25080;BME280;13071;48.868;9.996;2023-03-30T01:54:09;96156.72;;;10.52;100.00
25080;BME280;13071;48.868;9.996;2023-03-30T01:56:40;96142.31;;;10.36;100.00
25080;BME280;13071;48.868;9.996;2023-03-30T01:59:11;96151.53;;;10.59;100.00
25080;BME280;13071;48.868;9.996;2023-03-30T02:01:42;96169.34;;;10.60;100.00
25080;BME280;13071;48.868;9.996;2023-03-30T02:04:15;96185.34;;;10.65;100.00
25080;BME280;13071;48.868;9.996;2023-03-30T02:06:47;96174.53;;;10.53;100.00
25080;BME280;13071;48.868;9.996;2023-03-30T02:09:19;96162.16;;;10.40;100.00
25080;BME280;13071;48.868;9.996;2023-03-30T02:11:50;96162.72;;;10.33;100.00
25080;BME280;13071;48.868;9.996;2023-03-30T02:14:19;96170.03;;;10.45;100.00
25080;BME280;13071;48.868;9.996;2023-03-30T02:16:52;96181.75;;;10.37;100.00
25080;BME280;13071;48.868;9.996;2023-03-30T02:19:19;96185.47;;;10.32;100.00
25080;BME280;13071;48.868;9.996;2023-03-30T02:21:46;96179.84;;;10.37;100.00
25080;BME280;13071;48.868;9.996;2023-03-30T02:24:18;96182.53;;;10.37;100.00
25080;BME280;13071;48.868;9.996;2023-03-30T02:26:48;96189.63;;;10.54;100.00
25080;BME280;13071;48.868;9.996;2023-03-30T02:29:16;96183.28;;;10.74;99.90
25080;BME280;13071;48.868;9.996;2023-03-30T02:31:45;96165.63;;;10.53;100.00
25080;BME280;13071;48.868;9.996;2023-03-30T02:34:17;96174.28;;;10.58;100.00
25080;BME280;13071;48.868;9.996;2023-03-30T02:37:04;96183.06;;;10.67;100.00
25080;BME280;13071;48.868;9.996;2023-03-30T02:39:43;96190.31;;;10.63;100.00
25080;BME280;13071;48.868;9.996;2023-03-30T02:45:15;96196.03;;;10.62;100.00
25080;BME280;13071;48.868;9.996;2023-03-30T02:47:51;96202.28;;;10.50;100.00
25080;BME280;13071;48.868;9.996;2023-03-30T02:50:32;96194.72;;;10.56;100.00
25080;BME280;13071;48.868;9.996;2023-03-30T02:53:05;96189.41;;;10.59;100.00
25080;BME280;13071;48.868;9.996;2023-03-30T02:55:41;96180.59;;;10.62;100.00
25080;BME280;13071;48.868;9.996;2023-03-30T02:58:14;96171.47;;;10.67;100.00
25080;BME280;13071;48.868;9.996;2023-03-30T03:00:45;96175.19;;;10.62;100.00
25080;BME280;13071;48.868;9.996;2023-03-30T03:03:17;96174.16;;;10.79;100.00
25080;BME280;13071;48.868;9.996;2023-03-30T03:05:45;96183.91;;;10.96;99.06
25080;BME280;13071;48.868;9.996;2023-03-30T03:08:13;96191.28;;;10.95;97.96
25080;BME280;13071;48.868;9.996;2023-03-30T03:10:42;96192.81;;;11.08;98.15
25080;BME280;13071;48.868;9.996;2023-03-30T03:13:09;96198.41;;;11.15;97.18
25080;BME280;13071;48.868;9.996;2023-03-30T03:15:35;96195.34;;;11.29;96.32
25080;BME280;13071;48.868;9.996;2023-03-30T03:18:02;96197.88;;;11.38;96.58
25080;BME280;13071;48.868;9.996;2023-03-30T03:20:30;96206.19;;;11.45;96.10
25080;BME280;13071;48.868;9.996;2023-03-30T03:22:56;96209.66;;;11.30;96.51
25080;BME280;13071;48.868;9.996;2023-03-30T03:25:23;96210.16;;;11.19;98.32
25080;BME280;13071;48.868;9.996;2023-03-30T03:27:51;96199.84;;;11.25;97.47
25080;BME280;13071;48.868;9.996;2023-03-30T03:30:18;96204.38;;;11.21;98.20
25080;BME280;13071;48.868;9.996;2023-03-30T03:32:44;96204.78;;;11.35;98.91
25080;BME280;13071;48.868;9.996;2023-03-30T03:35:11;96204.19;;;11.42;98.27
25080;BME280;13071;48.868;9.996;2023-03-30T03:37:38;96201.00;;;11.52;97.24
25080;BME280;13071;48.868;9.996;2023-03-30T03:40:06;96207.34;;;11.72;97.49
25080;BME280;13071;48.868;9.996;2023-03-30T03:42:33;96195.81;;;11.75;98.01
25080;BME280;13071;48.868;9.996;2023-03-30T03:45:01;96201.63;;;11.61;98.50
25080;BME280;13071;48.868;9.996;2023-03-30T03:47:30;96192.81;;;11.64;99.08
25080;BME280;13071;48.868;9.996;2023-03-30T03:49:57;96195.84;;;11.62;99.91
25080;BME280;13071;48.868;9.996;2023-03-30T03:52:25;96198.38;;;11.55;100.00
25080;BME280;13071;48.868;9.996;2023-03-30T03:54:51;96170.13;;;11.56;100.00
25080;BME280;13071;48.868;9.996;2023-03-30T03:57:18;96155.03;;;11.71;100.00
25080;BME280;13071;48.868;9.996;2023-03-30T03:59:47;96154.09;;;11.36;100.00
25080;BME280;13071;48.868;9.996;2023-03-30T04:02:15;96152.78;;;11.30;100.00
25080;BME280;13071;48.868;9.996;2023-03-30T04:04:41;96136.47;;;11.14;100.00
25080;BME280;13071;48.868;9.996;2023-03-30T04:07:08;96141.00;;;11.10;100.00
25080;BME280;13071;48.868;9.996;2023-03-30T04:09:35;96141.25;;;11.05;100.00
25080;BME280;13071;48.868;9.996;2023-03-30T04:12:03;96138.91;;;10.91;100.00
25080;BME280;13071;48.868;9.996;2023-03-30T04:14:30;96137.00;;;10.92;100.00
25080;BME280;13071;48.868;9.996;2023-03-30T04:16:57;96132.38;;;10.92;100.00
25080;BME280;13071;48.868;9.996;2023-03-30T04:19:25;96121.22;;;10.94;100.00
25080;BME280;13071;48.868;9.996;2023-03-30T04:21:55;96102.34;;;10.97;100.00
25080;BME280;13071;48.868;9.996;2023-03-30T04:24:23;96092.88;;;10.91;100.00
25080;BME280;13071;48.868;9.996;2023-03-30T04:26:50;96085.97;;;10.78;100.00
25080;BME280;13071;48.868;9.996;2023-03-30T04:29:16;96097.13;;;10.76;100.00
25080;BME280;13071;48.868;9.996;2023-03-30T04:31:45;96102.53;;;10.76;100.00
25080;BME280;13071;48.868;9.996;2023-03-30T04:34:12;96110.78;;;10.80;100.00
25080;BME280;13071;48.868;9.996;2023-03-30T04:36:40;96100.84;;;10.84;100.00
25080;BME280;13071;48.868;9.996;2023-03-30T04:39:08;96099.78;;;10.89;100.00
25080;BME280;13071;48.868;9.996;2023-03-30T04:41:36;96094.03;;;10.90;100.00
25080;BME280;13071;48.868;9.996;2023-03-30T04:44:05;96085.56;;;10.92;100.00
25080;BME280;13071;48.868;9.996;2023-03-30T04:46:32;96083.97;;;10.91;100.00
25080;BME280;13071;48.868;9.996;2023-03-30T04:48:58;96080.59;;;10.94;100.00
25080;BME280;13071;48.868;9.996;2023-03-30T04:51:26;96082.13;;;10.79;100.00
25080;BME280;13071;48.868;9.996;2023-03-30T04:53:54;96089.44;;;10.78;100.00
25080;BME280;13071;48.868;9.996;2023-03-30T04:56:20;96068.94;;;10.77;100.00
25080;BME280;13071;48.868;9.996;2023-03-30T04:58:47;96074.81;;;10.67;100.00
25080;BME280;13071;48.868;9.996;2023-03-30T05:01:13;96070.28;;;10.71;100.00
25080;BME280;13071;48.868;9.996;2023-03-30T05:03:40;96064.84;;;10.83;100.00
25080;BME280;13071;48.868;9.996;2023-03-30T05:06:07;96059.47;;;10.71;100.00
25080;BME280;13071;48.868;9.996;2023-03-30T05:08:33;96050.38;;;10.64;100.00
25080;BME280;13071;48.868;9.996;2023-03-30T05:11:02;96049.38;;;10.56;100.00
25080;BME280;13071;48.868;9.996;2023-03-30T05:13:30;96045.00;;;10.52;100.00
25080;BME280;13071;48.868;9.996;2023-03-30T05:15:56;96037.88;;;10.59;100.00
25080;BME280;13071;48.868;9.996;2023-03-30T05:18:23;96035.16;;;10.59;100.00
25080;BME280;13071;48.868;9.996;2023-03-30T05:20:50;96030.97;;;10.62;100.00
25080;BME280;13071;48.868;9.996;2023-03-30T05:23:16;96029.28;;;10.69;100.00
25080;BME280;13071;48.868;9.996;2023-03-30T05:25:43;96008.66;;;10.65;100.00
25080;BME280;13071;48.868;9.996;2023-03-30T05:28:12;96001.59;;;10.76;100.00
25080;BME280;13071;48.868;9.996;2023-03-30T05:30:38;96010.13;;;10.62;100.00
25080;BME280;13071;48.868;9.996;2023-03-30T05:33:05;96000.88;;;10.63;100.00
25080;BME280;13071;48.868;9.996;2023-03-30T05:35:34;96001.13;;;10.58;100.00
25080;BME280;13071;48.868;9.996;2023-03-30T05:38:00;95998.88;;;10.60;100.00
25080;BME280;13071;48.868;9.996;2023-03-30T05:40:27;96002.09;;;10.66;100.00
25080;BME280;13071;48.868;9.996;2023-03-30T05:42:54;95997.19;;;10.56;100.00
25080;BME280;13071;48.868;9.996;2023-03-30T05:45:22;96009.69;;;10.60;100.00
25080;BME280;13071;48.868;9.996;2023-03-30T05:47:48;96014.63;;;10.70;100.00
25080;BME280;13071;48.868;9.996;2023-03-30T05:50:15;96014.22;;;10.84;100.00
25080;BME280;13071;48.868;9.996;2023-03-30T05:52:42;96012.13;;;10.93;100.00
25080;BME280;13071;48.868;9.996;2023-03-30T05:55:08;96006.22;;;11.03;100.00
25080;BME280;13071;48.868;9.996;2023-03-30T05:57:36;96016.28;;;11.18;100.00
25080;BME280;13071;48.868;9.996;2023-03-30T06:00:04;96020.19;;;11.21;100.00
25080;BME280;13071;48.868;9.996;2023-03-30T06:02:35;96021.06;;;11.25;100.00
25080;BME280;13071;48.868;9.996;2023-03-30T06:05:02;96021.53;;;11.27;100.00
25080;BME280;13071;48.868;9.996;2023-03-30T06:07:29;96004.41;;;11.23;100.00
25080;BME280;13071;48.868;9.996;2023-03-30T06:09:56;96010.97;;;11.38;100.00
25080;BME280;13071;48.868;9.996;2023-03-30T06:12:24;96013.56;;;11.18;100.00
25080;BME280;13071;48.868;9.996;2023-03-30T06:14:51;95997.31;;;11.18;100.00
25080;BME280;13071;48.868;9.996;2023-03-30T06:17:17;95998.81;;;11.32;100.00
25080;BME280;13071;48.868;9.996;2023-03-30T06:19:45;96008.31;;;11.57;100.00
25080;BME280;13071;48.868;9.996;2023-03-30T06:22:12;96022.13;;;11.52;100.00
25080;BME280;13071;48.868;9.996;2023-03-30T06:24:38;96025.22;;;11.35;100.00
25080;BME280;13071;48.868;9.996;2023-03-30T06:27:05;96017.50;;;11.21;100.00
25080;BME280;13071;48.868;9.996;2023-03-30T06:29:32;96003.78;;;11.30;100.00
25080;BME280;13071;48.868;9.996;2023-03-30T06:31:58;96007.19;;;11.26;100.00
25080;BME280;13071;48.868;9.996;2023-03-30T06:34:25;96006.94;;;11.32;100.00
25080;BME280;13071;48.868;9.996;2023-03-30T06:36:53;95997.47;;;11.25;100.00
25080;BME280;13071;48.868;9.996;2023-03-30T06:39:20;96002.03;;;11.21;100.00
25080;BME280;13071;48.868;9.996;2023-03-30T06:41:47;96017.59;;;11.40;100.00
25080;BME280;13071;48.868;9.996;2023-03-30T06:44:13;96022.22;;;11.40;100.00
25080;BME280;13071;48.868;9.996;2023-03-30T06:46:40;96025.97;;;11.51;100.00
25080;BME280;13071;48.868;9.996;2023-03-30T06:49:06;96052.13;;;11.75;100.00
25080;BME280;13071;48.868;9.996;2023-03-30T06:51:33;96047.59;;;11.63;100.00
25080;BME280;13071;48.868;9.996;2023-03-30T06:54:02;96051.88;;;11.64;100.00
25080;BME280;13071;48.868;9.996;2023-03-30T06:56:29;96038.13;;;11.57;100.00
25080;BME280;13071;48.868;9.996;2023-03-30T06:58:55;96048.19;;;11.56;100.00
25080;BME280;13071;48.868;9.996;2023-03-30T07:01:22;96046.53;;;11.67;100.00
25080;BME280;13071;48.868;9.996;2023-03-30T07:03:51;96054.31;;;11.69;100.00
25080;BME280;13071;48.868;9.996;2023-03-30T07:06:17;96058.09;;;11.80;100.00
25080;BME280;13071;48.868;9.996;2023-03-30T07:08:44;96051.53;;;11.81;100.00
25080;BME280;13071;48.868;9.996;2023-03-30T07:11:12;96056.25;;;11.84;100.00
25080;BME280;13071;48.868;9.996;2023-03-30T07:13:39;96048.09;;;12.00;100.00
25080;BME280;13071;48.868;9.996;2023-03-30T07:16:06;96064.09;;;12.05;100.00
25080;BME280;13071;48.868;9.996;2023-03-30T07:18:33;96060.75;;;12.11;100.00
25080;BME280;13071;48.868;9.996;2023-03-30T07:21:00;96054.22;;;12.13;100.00
25080;BME280;13071;48.868;9.996;2023-03-30T07:23:28;96052.94;;;12.26;100.00
25080;BME280;13071;48.868;9.996;2023-03-30T07:25:55;96062.09;;;12.37;100.00
25080;BME280;13071;48.868;9.996;2023-03-30T07:28:24;96064.91;;;12.40;100.00
25080;BME280;13071;48.868;9.996;2023-03-30T07:30:51;96056.03;;;12.43;100.00
25080;BME280;13071;48.868;9.996;2023-03-30T07:33:17;96074.91;;;12.55;100.00
25080;BME280;13071;48.868;9.996;2023-03-30T07:35:46;96078.38;;;12.72;98.85
25080;BME280;13071;48.868;9.996;2023-03-30T07:38:15;96076.44;;;12.91;95.77
25080;BME280;13071;48.868;9.996;2023-03-30T07:40:41;96094.44;;;12.99;95.46
25080;BME280;13071;48.868;9.996;2023-03-30T07:43:08;96108.59;;;13.09;95.50
25080;BME280;13071;48.868;9.996;2023-03-30T07:45:36;96126.94;;;13.31;94.53
25080;BME280;13071;48.868;9.996;2023-03-30T07:48:02;96137.13;;;13.37;94.13
25080;BME280;13071;48.868;9.996;2023-03-30T07:50:29;96136.44;;;13.21;95.34
25080;BME280;13071;48.868;9.996;2023-03-30T07:52:55;96143.50;;;13.07;95.17
25080;BME280;13071;48.868;9.996;2023-03-30T07:55:22;96148.75;;;12.99;94.82
25080;BME280;13071;48.868;9.996;2023-03-30T07:57:48;96156.91;;;12.99;95.38
25080;BME280;13071;48.868;9.996;2023-03-30T08:00:15;96164.41;;;12.87;95.35
25080;BME280;13071;48.868;9.996;2023-03-30T08:02:44;96167.75;;;12.80;96.45
25080;BME280;13071;48.868;9.996;2023-03-30T08:05:11;96175.31;;;12.71;98.71
25080;BME280;13071;48.868;9.996;2023-03-30T08:07:37;96178.50;;;12.58;100.00
25080;BME280;13071;48.868;9.996;2023-03-30T08:10:04;96180.31;;;12.53;100.00
25080;BME280;13071;48.868;9.996;2023-03-30T08:12:32;96182.63;;;12.36;100.00
25080;BME280;13071;48.868;9.996;2023-03-30T08:14:59;96186.66;;;12.26;100.00
25080;BME280;13071;48.868;9.996;2023-03-30T08:17:26;96199.00;;;12.24;100.00
25080;BME280;13071;48.868;9.996;2023-03-30T08:19:54;96195.41;;;12.20;100.00
25080;BME280;13071;48.868;9.996;2023-03-30T08:22:21;96178.59;;;12.14;100.00
25080;BME280;13071;48.868;9.996;2023-03-30T08:24:48;96156.31;;;12.21;100.00
25080;BME280;13071;48.868;9.996;2023-03-30T08:27:14;96139.50;;;12.15;100.00
25080;BME280;13071;48.868;9.996;2023-03-30T08:29:41;96126.47;;;12.21;100.00
25080;BME280;13071;48.868;9.996;2023-03-30T08:32:07;96141.94;;;12.20;100.00
25080;BME280;13071;48.868;9.996;2023-03-30T08:34:34;96147.38;;;12.36;100.00
25080;BME280;13071;48.868;9.996;2023-03-30T08:37:02;96141.31;;;12.42;100.00
25080;BME280;13071;48.868;9.996;2023-03-30T08:39:29;96160.94;;;12.36;100.00
25080;BME280;13071;48.868;9.996;2023-03-30T08:42:04;96155.94;;;12.38;100.00
25080;BME280;13071;48.868;9.996;2023-03-30T08:44:35;96176.41;;;12.35;100.00
25080;BME280;13071;48.868;9.996;2023-03-30T08:47:04;96180.38;;;12.38;100.00
25080;BME280;13071;48.868;9.996;2023-03-30T08:49:37;96198.38;;;12.30;100.00
25080;BME280;13071;48.868;9.996;2023-03-30T08:52:12;96210.13;;;12.34;100.00
25080;BME280;13071;48.868;9.996;2023-03-30T08:54:41;96213.00;;;12.41;100.00
25080;BME280;13071;48.868;9.996;2023-03-30T08:57:13;96213.53;;;12.31;100.00
25080;BME280;13071;48.868;9.996;2023-03-30T08:59:50;96220.34;;;12.25;100.00
25080;BME280;13071;48.868;9.996;2023-03-30T09:02:19;96228.09;;;12.23;100.00
25080;BME280;13071;48.868;9.996;2023-03-30T09:04:54;96230.34;;;12.21;100.00
25080;BME280;13071;48.868;9.996;2023-03-30T09:07:28;96227.53;;;12.02;100.00
25080;BME280;13071;48.868;9.996;2023-03-30T09:09:58;96227.50;;;11.58;100.00
25080;BME280;13071;48.868;9.996;2023-03-30T09:12:37;96233.63;;;11.83;100.00
25080;BME280;13071;48.868;9.996;2023-03-30T09:15:11;96225.50;;;11.99;100.00
25080;BME280;13071;48.868;9.996;2023-03-30T09:17:41;96233.75;;;12.02;100.00
25080;BME280;13071;48.868;9.996;2023-03-30T09:20:13;96247.56;;;11.97;100.00
25080;BME280;13071;48.868;9.996;2023-03-30T09:22:43;96247.09;;;11.95;100.00
25080;BME280;13071;48.868;9.996;2023-03-30T09:25:13;96234.31;;;11.80;100.00
25080;BME280;13071;48.868;9.996;2023-03-30T09:27:46;96215.28;;;11.92;100.00
25080;BME280;13071;48.868;9.996;2023-03-30T09:30:18;96219.31;;;11.98;100.00
25080;BME280;13071;48.868;9.996;2023-03-30T09:32:57;96216.50;;;12.10;100.00
25080;BME280;13071;48.868;9.996;2023-03-30T09:35:30;96225.50;;;11.99;100.00
25080;BME280;13071;48.868;9.996;2023-03-30T09:38:01;96230.00;;;12.07;100.00
25080;BME280;13071;48.868;9.996;2023-03-30T09:40:44;96215.19;;;12.20;100.00
25080;BME280;13071;48.868;9.996;2023-03-30T09:43:15;96217.38;;;12.15;100.00
25080;BME280;13071;48.868;9.996;2023-03-30T09:45:45;96210.47;;;12.17;100.00
25080;BME280;13071;48.868;9.996;2023-03-30T09:48:14;96202.41;;;12.05;100.00
25080;BME280;13071;48.868;9.996;2023-03-30T09:50:42;96194.97;;;12.02;100.00
25080;BME280;13071;48.868;9.996;2023-03-30T09:53:19;96180.47;;;11.66;100.00
25080;BME280;13071;48.868;9.996;2023-03-30T09:55:56;96164.94;;;11.36;100.00
25080;BME280;13071;48.868;9.996;2023-03-30T09:58:28;96185.75;;;11.75;100.00
25080;BME280;13071;48.868;9.996;2023-03-30T10:01:05;96175.75;;;11.63;100.00
25080;BME280;13071;48.868;9.996;2023-03-30T10:03:33;96168.22;;;11.57;100.00
25080;BME280;13071;48.868;9.996;2023-03-30T10:06:02;96144.41;;;11.78;100.00
25080;BME280;13071;48.868;9.996;2023-03-30T10:08:31;96127.84;;;11.67;100.00
25080;BME280;13071;48.868;9.996;2023-03-30T10:10:59;96134.25;;;11.91;100.00
25080;BME280;13071;48.868;9.996;2023-03-30T10:13:30;96145.72;;;12.00;100.00
25080;BME280;13071;48.868;9.996;2023-03-30T10:16:03;96149.94;;;12.13;100.00
25080;BME280;13071;48.868;9.996;2023-03-30T10:18:36;96162.69;;;12.13;100.00
25080;BME280;13071;48.868;9.996;2023-03-30T10:21:06;96164.72;;;12.16;100.00
25080;BME280;13071;48.868;9.996;2023-03-30T10:23:44;96169.72;;;12.14;100.00
25080;BME280;13071;48.868;9.996;2023-03-30T10:26:12;96184.16;;;12.18;100.00
25080;BME280;13071;48.868;9.996;2023-03-30T10:28:50;96188.78;;;12.17;100.00
25080;BME280;13071;48.868;9.996;2023-03-30T10:31:18;96178.88;;;12.25;100.00
25080;BME280;13071;48.868;9.996;2023-03-30T10:33:46;96186.41;;;12.31;100.00
25080;BME280;13071;48.868;9.996;2023-03-30T10:36:14;96185.69;;;12.50;100.00
25080;BME280;13071;48.868;9.996;2023-03-30T10:38:44;96178.50;;;12.58;100.00
25080;BME280;13071;48.868;9.996;2023-03-30T10:41:13;96170.38;;;12.92;100.00
25080;BME280;13071;48.868;9.996;2023-03-30T10:43:41;96160.94;;;13.06;100.00
25080;BME280;13071;48.868;9.996;2023-03-30T10:46:11;96164.97;;;13.12;98.30
25080;BME280;13071;48.868;9.996;2023-03-30T10:48:51;96182.91;;;13.16;97.36
25080;BME280;13071;48.868;9.996;2023-03-30T10:51:26;96187.00;;;13.26;98.60
25080;BME280;13071;48.868;9.996;2023-03-30T10:54:05;96181.41;;;13.19;99.30
25080;BME280;13071;48.868;9.996;2023-03-30T10:56:38;96184.28;;;13.26;99.44
25080;BME280;13071;48.868;9.996;2023-03-30T11:02:22;96167.06;;;13.79;100.00
25080;BME280;13071;48.868;9.996;2023-03-30T11:04:57;96161.56;;;13.76;99.09
25080;BME280;13071;48.868;9.996;2023-03-30T11:07:30;96138.91;;;13.49;96.69
25080;BME280;13071;48.868;9.996;2023-03-30T11:10:04;96149.22;;;13.40;97.08
25080;BME280;13071;48.868;9.996;2023-03-30T11:12:34;96156.75;;;13.47;96.61
25080;BME280;13071;48.868;9.996;2023-03-30T11:15:10;96160.16;;;13.44;96.86
25080;BME280;13071;48.868;9.996;2023-03-30T11:17:46;96145.50;;;13.29;95.87
25080;BME280;13071;48.868;9.996;2023-03-30T11:20:18;96145.16;;;13.30;96.59
25080;BME280;13071;48.868;9.996;2023-03-30T11:22:51;96160.44;;;13.38;96.65
25080;BME280;13071;48.868;9.996;2023-03-30T11:25:23;96144.81;;;13.32;95.55
25080;BME280;13071;48.868;9.996;2023-03-30T11:27:54;96144.44;;;13.14;95.55
25080;BME280;13071;48.868;9.996;2023-03-30T11:30:25;96135.75;;;13.09;96.79
25080;BME280;13071;48.868;9.996;2023-03-30T11:32:55;96142.69;;;13.06;95.96
25080;BME280;13071;48.868;9.996;2023-03-30T11:35:29;96161.34;;;13.08;95.97
25080;BME280;13071;48.868;9.996;2023-03-30T11:38:02;96169.19;;;12.93;95.18
25080;BME280;13071;48.868;9.996;2023-03-30T11:40:39;96167.19;;;12.71;95.77
25080;BME280;13071;48.868;9.996;2023-03-30T11:43:08;96164.59;;;12.78;96.82
25080;BME280;13071;48.868;9.996;2023-03-30T11:45:41;96164.13;;;12.73;97.00
25080;BME280;13071;48.868;9.996;2023-03-30T11:48:20;96176.53;;;12.74;97.61
25080;BME280;13071;48.868;9.996;2023-03-30T11:51:04;96181.03;;;12.66;98.51
25080;BME280;13071;48.868;9.996;2023-03-30T11:53:42;96179.06;;;12.82;99.15
25080;BME280;13071;48.868;9.996;2023-03-30T11:56:16;96181.56;;;12.91;97.99
25080;BME280;13071;48.868;9.996;2023-03-30T11:58:47;96172.19;;;12.88;98.08
25080;BME280;13071;48.868;9.996;2023-03-30T12:01:27;96174.78;;;13.01;97.66
25080;BME280;13071;48.868;9.996;2023-03-30T12:03:58;96178.56;;;13.12;97.30
25080;BME280;13071;48.868;9.996;2023-03-30T12:06:31;96173.00;;;13.08;97.20
25080;BME280;13071;48.868;9.996;2023-03-30T12:09:13;96183.25;;;13.15;96.77
25080;BME280;13071;48.868;9.996;2023-03-30T12:11:47;96177.56;;;13.20;96.83
25080;BME280;13071;48.868;9.996;2023-03-30T12:14:46;96174.25;;;13.30;96.41
25080;BME280;13071;48.868;9.996;2023-03-30T12:17:24;96176.69;;;13.16;96.00
25080;BME280;13071;48.868;9.996;2023-03-30T12:19:57;96178.72;;;13.03;97.02
25080;BME280;13071;48.868;9.996;2023-03-30T12:22:30;96182.69;;;13.25;96.26
25080;BME280;13071;48.868;9.996;2023-03-30T12:25:05;96181.34;;;13.34;96.37
25080;BME280;13071;48.868;9.996;2023-03-30T12:27:59;96179.03;;;13.17;96.08
25080;BME280;13071;48.868;9.996;2023-03-30T12:30:29;96184.84;;;13.16;96.13
25080;BME280;13071;48.868;9.996;2023-03-30T12:32:58;96178.97;;;13.14;96.54
25080;BME280;13071;48.868;9.996;2023-03-30T12:35:49;96173.28;;;13.03;96.04
25080;BME280;13071;48.868;9.996;2023-03-30T12:38:20;96167.56;;;13.08;96.01
25080;BME280;13071;48.868;9.996;2023-03-30T12:40:54;96170.47;;;13.15;95.57
25080;BME280;13071;48.868;9.996;2023-03-30T12:43:34;96166.41;;;13.25;95.75
25080;BME280;13071;48.868;9.996;2023-03-30T12:46:10;96168.53;;;13.16;94.44
25080;BME280;13071;48.868;9.996;2023-03-30T12:48:43;96177.34;;;12.93;94.62
25080;BME280;13071;48.868;9.996;2023-03-30T12:51:26;96151.19;;;13.05;95.24
25080;BME280;13071;48.868;9.996;2023-03-30T12:54:22;96157.22;;;13.14;94.65
25080;BME280;13071;48.868;9.996;2023-03-30T12:56:58;96146.75;;;13.12;95.01
25080;BME280;13071;48.868;9.996;2023-03-30T12:59:51;96137.88;;;13.15;94.86
25080;BME280;13071;48.868;9.996;2023-03-30T13:05:22;96118.97;;;13.22;94.19
25080;BME280;13071;48.868;9.996;2023-03-30T13:07:50;96117.81;;;13.43;94.22
25080;BME280;13071;48.868;9.996;2023-03-30T13:10:37;96115.59;;;13.48;93.61
25080;BME280;13071;48.868;9.996;2023-03-30T13:13:04;96109.00;;;13.49;93.55
25080;BME280;13071;48.868;9.996;2023-03-30T13:15:46;96116.31;;;13.45;92.86
25080;BME280;13071;48.868;9.996;2023-03-30T13:18:29;96117.94;;;13.50;93.17
25080;BME280;13071;48.868;9.996;2023-03-30T13:21:14;96122.56;;;13.68;93.78
25080;BME280;13071;48.868;9.996;2023-03-30T13:23:43;96123.41;;;13.72;92.52
25080;BME280;13071;48.868;9.996;2023-03-30T13:26:21;96121.22;;;13.81;92.08
25080;BME280;13071;48.868;9.996;2023-03-30T13:29:03;96105.69;;;13.82;91.88
25080;BME280;13071;48.868;9.996;2023-03-30T13:32:02;96088.53;;;14.01;91.54